Terminal Aerodrome Forecast
Issued by NWS

Home | Current Version | Previous Version | Graphics & Text | Print | Product List | Glossary On
Versions: 1 2 3 4 5 6 7 8 9 10 11 12 13 14 15 16 17 18 19 20 21 22 23 24 25 26 27 28 29 30 31 32 33 34 35 36 37 38 39 40 41 42 43 44
000
FTUS43 KGRB 241400 AAB
TAFRHI
TAF AMD
KRHI 241458Z 2415/2512 02005KT 4SM -SN BR OVC015
      TEMPO 2415/2417 2SM -FZDZSN OVC007
     FM241700 01005KT 5SM -SN BR SCT003 OVC009
     FM241800 35006KT P6SM -SN SCT006 OVC012
     FM250000 29005KT P6SM -SN SCT012 OVC020
     FM250600 26007KT P6SM BKN023=

USA.gov is the U.S. government's official web portal to all federal, state and local government web resources and services.